Aviation Digital Data Service (ADDS)

Output produced by METARs form (0435 UTC 03 September 2014)
found at http://aviationweather.gov/adds/metars/
 
KALB 022328Z 0300/0324 18006KT P6SM VCSH SCT040 SCT100 SCT200 
     FM030200 24006KT 6SM -SHRA BR SCT025 OVC040 
     TEMPO 0302/0306 1SM TSRA BKN020CB OVC040 
     FM030600 26007KT 3SM BR VCSH SCT003 BKN020 
     FM031230 27009G19KT P6SM SCT040 SCT100